Relevés horaires Mathod (Suisse)


Relevés horaires à Mathod - Mercredi 08 Mai 2019
Heure UTC1 Température [°C] Vent [km/h] Hum. [%] Pres.4 [hPa] Visi. [Km] Nébu. [octa] Préc.5 [mm] Cond.
2m. Res. Ros. Dir.2 Vit. Moy. Raf.3
23:00 7.6 5.9 7.6 SO 9.3 -- 16.7 100 1008.2(-0.7/3h) -- -- -- --
22:00 7.9 6.7 7.9 SSO 7.4 -- 20.4 100 1008.4(0.1/3h) -- -- -- --
21:00 7.9 5.6 7.9 SSO 13.0 -- 29.6 100 1008.9(0.6/3h) -- -- -- --
20:00 7.8 5.2 7.8 SO 14.8 -- 22.2 100 1008.9(1.4/3h) -- -- -- --
19:00 8.0 5.5 8.0 S 14.8 -- 20.4 100 1008.5(2.4/3h) -- -- -- --
18:00 8.3 6.7 7.9 SO 9.3 -- 50.0 97 1008.1(2.7/3h) -- -- -- --
17:00 9.0 6.3 7.0 SO 18.5 -- 37.0 87 1007.2(2.3/3h) -- -- -- --
16:00 9.9 7.4 7.8 O 18.5 -- 50.0 87 1005.6(0.3/3h) -- -- -- --
15:00 11.1 8.7 11.1 SO 20.4 -- 33.3 100 1004.8(-0.8/3h) -- -- -- --
14:00 11.1 9.1 11.1 SSO 16.7 -- 27.8 100 1004.3(-1.9/3h) -- -- -- --
13:00 10.9 9 10.9 S 14.8 -- 24.1 100 1005.1(-2.3/3h) -- -- -- --
12:00 10.8 8.7 10.8 S 16.7 -- 31.5 100 1005.7(-2.7/3h) -- -- -- --
11:00 10.8 8.3 10.8 S 20.4 -- 29.6 100 1006.4(-2.4/3h) -- -- -- --
10:00 10.5 8.2 10.5 S 18.5 -- 27.8 100 1007.6(-1.7/3h) -- -- -- --
09:00 10.3 7.9 10.3 S 18.5 -- 25.9 100 1008.6(-0.6/3h) -- -- -- --
08:00 10.2 9 10.2 S 9.3 -- 14.8 100 1009(-0.5/3h) -- -- -- --
07:00 9.5 9.5 9.5 N 3.7 -- 7.4 100 1009.6(-0.6/3h) -- -- -- --
06:00 8.9 8.3 8.9 NE 5.6 -- 14.8 100 1009.5(-1.8/3h) -- -- -- --
05:00 8.6 7.5 8.6 NNE 7.4 -- 14.8 100 1009.9(-1.7/3h) -- -- -- --
04:00 8.2 6.3 8.2 N 11.1 -- 13.0 100 1010.5(-2.1/3h) -- -- -- --
03:00 8.5 8.5 8.5 E 3.7 -- 13.0 100 1011.5(-1.7/3h) -- -- -- --
02:00 8.2 7.5 8.2 N 5.6 -- 7.4 100 1011.8(-2.0/3h) -- -- -- --
01:00 8.3 7.1 8.1 NNO 7.4 -- 13.0 99 1012.7(-1.5/3h) -- -- -- --
00:00 8.4 7.7 8.4 NE 5.6 -- 11.1 100 1013.3(-1.1/3h) -- -- -- --

1 Coordinated Universal Time. Actuellement il est 12:00 locale et 10:00 UTC.

2 Le vent souffle depuis la direction indiquée vers la direction oposée.

3 Les rafales max. sont disponible 40 min après l'heure du relevé.

4 Pour les stations d'altitude (plus de 600m) le géopotentiel du niveau le plus proche de la pression obligatoire est indiqué.

5 Les stations disposant d'un diffuseur peuvent indiquer "trace". Cela signifie que des précipitations ont touchés le sol mais que la quantité est inférieure à 0.1 mm.

Copyright

Les données affichées sur cette page sont la propriété exclusive de Météo Suisse.

Récapitulatif de la journée
Température [°C] Vent [km/h] Ensoleillement4 [h] Precipitations totale5 [mm] Pression [Hpa]
Min1 Max.2 Moy.3 Max. Min Max.
7.9 11.3 0 50.0 0 h 0 min 0 1004.3 1013.3

1 Température minimale relevée entre 18:00 UTC la veille et 18:00 UTC le jour donné.

2 Température maximale relevée entre 06:00 UTC le jour donné et 06:00 UTC le lendemain.

3 Vent moyen de la journée basé sur les relevés horaires.

4 Ensoleillement en heures relevé entre 06:00 UTC la veille et 06:00 UTC le jour donné.

5 Précipitations totales tombées entre 06:00 UTC la jour donné et 06:00 UTC le lendemain.

Graphiques horaires